Time;durP1;ratioP1;P1;durP2;ratioP2;P2;SDS_P1;SDS_P2;PMS_P1;PMS_P2;Temp;Humidity;BMP_temperature;BMP_pressure;BME280_temperature;BME280_humidity;BME280_pressure;Samples;Min_cycle;Max_cycle;Signal;HPM_P1;HPM_P2
2023/12/15 00:02:03;;;;;;;8.80;5.80;;;;;5.00;97008.00;;;;8270736;28;20226;-80
2023/12/15 00:06:10;;;;;;;10.83;6.73;;;;;5.00;97019.00;;;;8270180;28;20195;-79
2023/12/15 00:10:15;;;;;;;10.27;6.63;;;;;5.00;97021.00;;;;8270970;28;20261;-80
2023/12/15 00:14:18;;;;;;;12.87;6.73;;;;;4.90;97022.00;;;;8270928;28;20284;-80
2023/12/15 00:18:22;;;;;;;10.47;6.57;;;;;4.90;97038.00;;;;8270036;28;20286;-80
2023/12/15 00:22:25;;;;;;;11.00;7.20;;;;;4.80;97042.00;;;;8270294;28;20234;-79
2023/12/15 00:26:29;;;;;;;10.20;6.63;;;;;4.80;97053.00;;;;8269214;28;20688;-80
2023/12/15 00:30:32;;;;;;;9.90;6.30;;;;;4.70;97056.00;;;;8269719;28;20199;-80
2023/12/15 00:34:36;;;;;;;9.40;6.40;;;;;4.60;97062.00;;;;8270022;28;20183;-79
2023/12/15 00:38:39;;;;;;;8.47;5.97;;;;;4.50;97062.00;;;;8269927;28;20290;-80
2023/12/15 00:42:43;;;;;;;9.53;6.33;;;;;4.40;97066.00;;;;8269867;28;20229;-79
2023/12/15 00:46:46;;;;;;;9.00;6.10;;;;;4.30;97071.00;;;;8269589;28;20285;-80
2023/12/15 00:50:49;;;;;;;8.27;5.43;;;;;4.10;97084.00;;;;8269976;28;20253;-80
2023/12/15 00:54:53;;;;;;;8.60;5.67;;;;;4.00;97091.00;;;;8269232;28;20540;-80
2023/12/15 00:58:59;;;;;;;7.87;5.23;;;;;3.80;97091.00;;;;8269256;28;20230;-80
2023/12/15 01:03:07;;;;;;;6.60;4.77;;;;;3.70;97102.00;;;;8270186;28;20641;-80
2023/12/15 01:07:10;;;;;;;9.03;5.20;;;;;3.50;97108.00;;;;8268940;28;20541;-80
2023/12/15 01:11:13;;;;;;;8.63;5.10;;;;;3.40;97106.00;;;;8269005;28;20209;-80
2023/12/15 01:15:18;;;;;;;7.83;4.70;;;;;3.30;97125.00;;;;8268224;28;20234;-80
2023/12/15 01:19:21;;;;;;;6.60;4.63;;;;;3.20;97124.00;;;;8267931;28;20207;-80
2023/12/15 01:23:24;;;;;;;9.53;5.07;;;;;3.10;97140.00;;;;8266505;28;20210;-80
2023/12/15 01:27:28;;;;;;;7.73;5.20;;;;;3.00;97139.00;;;;8269373;28;20195;-81
2023/12/15 01:31:32;;;;;;;7.40;4.97;;;;;2.90;97147.00;;;;8267636;28;20202;-81
2023/12/15 01:35:36;;;;;;;7.03;5.10;;;;;2.80;97158.00;;;;8267507;28;20304;-81
2023/12/15 01:39:39;;;;;;;7.77;4.93;;;;;2.80;97164.00;;;;8267310;28;20198;-81
2023/12/15 01:43:42;;;;;;;10.90;5.90;;;;;2.70;97166.00;;;;8267938;28;20256;-80
2023/12/15 01:47:46;;;;;;;11.90;5.93;;;;;2.70;97168.00;;;;8267172;28;20201;-81
2023/12/15 01:51:50;;;;;;;6.97;4.73;;;;;2.70;97168.00;;;;8267124;28;20445;-80
2023/12/15 01:55:53;;;;;;;8.43;5.23;;;;;2.60;97179.00;;;;8267992;28;20238;-81
2023/12/15 01:59:56;;;;;;;8.17;5.23;;;;;2.50;97187.00;;;;8266764;28;20290;-81
2023/12/15 02:04:01;;;;;;;9.17;6.00;;;;;2.40;97185.00;;;;8268153;28;20276;-81
2023/12/15 02:08:04;;;;;;;10.60;5.80;;;;;2.40;97190.00;;;;8266126;28;20545;-82
2023/12/15 02:12:08;;;;;;;11.40;6.53;;;;;2.30;97200.00;;;;8267294;28;20194;-81
2023/12/15 02:16:11;;;;;;;10.13;6.27;;;;;2.20;97201.00;;;;8266690;28;20197;-81
2023/12/15 02:20:23;;;;;;;9.40;5.80;;;;;2.10;97212.00;;;;8266413;28;20317;-81
2023/12/15 02:24:27;;;;;;;12.97;6.80;;;;;2.10;97211.00;;;;8267880;28;20553;-82
2023/12/15 02:28:30;;;;;;;10.53;6.10;;;;;2.00;97211.00;;;;8266066;28;20236;-82
2023/12/15 02:32:33;;;;;;;12.00;6.63;;;;;2.00;97220.00;;;;8266189;28;20205;-81
2023/12/15 02:36:36;;;;;;;12.40;6.80;;;;;2.00;97218.00;;;;8266280;28;20206;-81
2023/12/15 02:40:44;;;;;;;11.80;7.07;;;;;2.00;97225.00;;;;8266673;28;20219;-81
2023/12/15 02:44:47;;;;;;;11.03;6.97;;;;;2.00;97236.00;;;;8266601;28;20568;-80
2023/12/15 02:48:51;;;;;;;12.20;7.43;;;;;2.00;97245.00;;;;8268908;28;20237;-81
2023/12/15 02:52:54;;;;;;;11.83;7.27;;;;;2.10;97257.00;;;;8273212;28;20195;-80
2023/12/15 02:56:58;;;;;;;14.23;7.33;;;;;2.20;97264.00;;;;8273732;28;20198;-81
2023/12/15 03:05:27;;;;;;;10.60;5.80;;;;;2.30;97283.00;;;;8267149;28;20235;-79
2023/12/15 03:09:30;;;;;;;13.47;6.23;;;;;2.40;97281.00;;;;8287413;28;20239;-79
2023/12/15 03:13:36;;;;;;;9.80;6.00;;;;;2.40;97293.00;;;;8284125;28;20619;-79
2023/12/15 03:17:39;;;;;;;11.73;6.47;;;;;2.40;97302.00;;;;8279491;28;20217;-79
2023/12/15 03:21:43;;;;;;;13.67;7.43;;;;;2.50;97316.00;;;;8286401;28;20260;-79
2023/12/15 03:25:46;;;;;;;11.20;6.00;;;;;2.50;97320.00;;;;8281198;28;20298;-79
2023/12/15 03:29:51;;;;;;;9.20;5.80;;;;;2.50;97324.00;;;;8284136;28;20202;-78
2023/12/15 03:33:54;;;;;;;12.53;6.70;;;;;2.50;97328.00;;;;8279574;28;20253;-79
2023/12/15 03:37:57;;;;;;;9.13;5.90;;;;;2.50;97338.00;;;;8284499;28;20206;-78
2023/12/15 03:42:01;;;;;;;11.40;6.00;;;;;2.50;97343.00;;;;8279141;28;20729;-77
2023/12/15 03:46:06;;;;;;;12.53;5.93;;;;;2.60;97345.00;;;;8294710;28;20305;-78
2023/12/15 03:50:09;;;;;;;8.30;5.77;;;;;2.70;97353.00;;;;8285223;28;20214;-77
2023/12/15 03:54:12;;;;;;;6.10;4.57;;;;;2.80;97360.00;;;;8281346;28;20248;-75
2023/12/15 03:58:16;;;;;;;8.43;5.47;;;;;2.90;97375.00;;;;8283060;28;20212;-74
2023/12/15 04:02:20;;;;;;;6.63;5.30;;;;;3.00;97380.00;;;;8281022;28;20312;-74
2023/12/15 04:06:24;;;;;;;8.03;5.33;;;;;3.00;97376.00;;;;8236857;28;20232;-76
2023/12/15 04:10:27;;;;;;;8.63;5.40;;;;;3.10;97399.00;;;;8244236;28;20203;-75
2023/12/15 04:14:30;;;;;;;10.40;5.97;;;;;3.10;97401.00;;;;8264599;28;20285;-74
2023/12/15 04:18:34;;;;;;;10.60;5.67;;;;;3.10;97414.00;;;;8258859;28;20611;-74
2023/12/15 04:22:38;;;;;;;10.87;6.50;;;;;3.10;97419.00;;;;8250945;28;20712;-75
2023/12/15 04:26:41;;;;;;;11.23;6.50;;;;;3.10;97427.00;;;;8244693;28;20227;-74
2023/12/15 04:30:44;;;;;;;12.33;6.83;;;;;3.20;97425.00;;;;8237848;28;20237;-76
2023/12/15 04:34:48;;;;;;;14.90;7.33;;;;;3.20;97432.00;;;;8250823;28;20217;-74
2023/12/15 04:38:51;;;;;;;11.33;6.87;;;;;3.20;97446.00;;;;8243130;28;20270;-74
2023/12/15 04:42:55;;;;;;;11.73;7.10;;;;;3.20;97450.00;;;;8241959;28;20264;-74
2023/12/15 04:46:58;;;;;;;11.57;6.90;;;;;3.20;97446.00;;;;8246080;28;20322;-74
2023/12/15 04:51:02;;;;;;;15.17;6.47;;;;;3.20;97454.00;;;;8250768;28;20794;-75
2023/12/15 04:55:06;;;;;;;11.30;6.40;;;;;3.20;97469.00;;;;8250381;28;20206;-75
2023/12/15 04:59:09;;;;;;;15.60;7.23;;;;;3.10;97476.00;;;;8237490;28;20203;-74
2023/12/15 05:03:12;;;;;;;9.53;5.83;;;;;2.90;97472.00;;;;8267604;28;20233;-74
2023/12/15 05:07:17;;;;;;;10.27;5.63;;;;;2.90;97485.00;;;;8226903;28;20772;-74
2023/12/15 05:11:20;;;;;;;10.87;6.37;;;;;2.80;97488.00;;;;8244380;28;20244;-75
2023/12/15 05:15:24;;;;;;;10.90;6.23;;;;;2.70;97496.00;;;;8252729;28;20216;-74
2023/12/15 05:19:27;;;;;;;10.07;5.73;;;;;2.70;97502.00;;;;8255222;28;20282;-73
2023/12/15 05:23:31;;;;;;;11.03;6.50;;;;;2.60;97500.00;;;;8249747;28;20238;-74
2023/12/15 05:27:34;;;;;;;10.83;6.77;;;;;2.50;97511.00;;;;8245659;28;20257;-75
2023/12/15 05:31:38;;;;;;;12.60;6.60;;;;;2.50;97515.00;;;;8255618;28;20208;-73
2023/12/15 05:35:41;;;;;;;12.87;7.03;;;;;2.40;97515.00;;;;8260434;28;20296;-74
2023/12/15 05:39:46;;;;;;;14.33;7.43;;;;;2.30;97528.00;;;;8248597;28;20924;-74
2023/12/15 05:43:49;;;;;;;14.30;7.93;;;;;2.30;97543.00;;;;8253358;28;20234;-73
2023/12/15 05:47:52;;;;;;;13.77;7.50;;;;;2.30;97560.00;;;;8255904;28;20241;-74
2023/12/15 05:51:55;;;;;;;14.87;7.50;;;;;2.30;97557.00;;;;8259480;28;20295;-73
2023/12/15 05:56:00;;;;;;;18.93;7.63;;;;;2.30;97575.00;;;;8259598;28;20293;-73
2023/12/15 06:00:03;;;;;;;15.97;7.87;;;;;2.40;97581.00;;;;8245548;28;20209;-75
2023/12/15 06:04:06;;;;;;;17.70;8.50;;;;;2.30;97582.00;;;;8244561;28;20314;-73
2023/12/15 06:08:10;;;;;;;21.23;8.67;;;;;2.30;97597.00;;;;8254360;28;20226;-74
2023/12/15 06:12:16;;;;;;;18.17;8.53;;;;;2.30;97599.00;;;;8256700;28;20194;-73
2023/12/15 06:16:19;;;;;;;15.63;7.90;;;;;2.50;97607.00;;;;8266497;28;20207;-73
2023/12/15 06:20:22;;;;;;;20.30;8.97;;;;;2.50;97608.00;;;;8249634;28;20233;-74
2023/12/15 06:24:26;;;;;;;17.07;6.03;;;;;2.40;97605.00;;;;8251002;28;20798;-73
2023/12/15 06:28:30;;;;;;;20.97;8.90;;;;;2.40;97614.00;;;;8257502;28;20755;-72
2023/12/15 06:32:33;;;;;;;26.23;11.37;;;;;2.40;97625.00;;;;8248088;28;20206;-72
2023/12/15 06:36:37;;;;;;;24.67;10.00;;;;;2.40;97624.00;;;;8244172;28;20862;-75
2023/12/15 06:40:41;;;;;;;29.13;11.10;;;;;2.50;97632.00;;;;8249985;28;20201;-75
2023/12/15 06:44:46;;;;;;;26.70;10.70;;;;;2.50;97645.00;;;;8258160;28;20233;-75
2023/12/15 06:48:50;;;;;;;23.83;10.37;;;;;2.60;97646.00;;;;8250093;28;20723;-74
2023/12/15 06:52:53;;;;;;;24.40;11.30;;;;;2.60;97662.00;;;;8258174;28;20210;-75
2023/12/15 06:56:56;;;;;;;21.80;10.07;;;;;2.70;97667.00;;;;8259835;28;20202;-74
2023/12/15 07:01:01;;;;;;;22.87;9.67;;;;;2.70;97678.00;;;;8259770;28;20316;-75
2023/12/15 07:05:05;;;;;;;24.70;10.87;;;;;2.80;97670.00;;;;8231793;28;20255;-74
2023/12/15 07:09:11;;;;;;;24.40;10.37;;;;;2.80;97685.00;;;;8231302;28;20213;-73
2023/12/15 07:13:14;;;;;;;23.27;10.50;;;;;2.90;97694.00;;;;8231736;28;20191;-74
2023/12/15 07:17:19;;;;;;;26.50;11.17;;;;;2.90;97692.00;;;;8228765;28;20207;-74
2023/12/15 07:21:22;;;;;;;21.07;10.40;;;;;3.00;97699.00;;;;8231346;28;20282;-73
2023/12/15 07:25:25;;;;;;;21.03;9.67;;;;;3.00;97715.00;;;;8231416;28;20725;-73
2023/12/15 07:29:28;;;;;;;21.30;10.20;;;;;3.00;97704.00;;;;8230055;28;20343;-74
2023/12/15 07:33:32;;;;;;;23.83;10.40;;;;;3.10;97721.00;;;;8232127;28;20538;-74
2023/12/15 07:37:36;;;;;;;20.93;9.63;;;;;3.10;97719.00;;;;8237252;28;20206;-74
2023/12/15 07:41:40;;;;;;;22.27;9.97;;;;;3.20;97727.00;;;;8237943;28;20210;-73
2023/12/15 07:45:43;;;;;;;24.33;10.20;;;;;3.20;97717.00;;;;8234896;28;20223;-74
2023/12/15 07:49:47;;;;;;;19.70;9.17;;;;;3.30;97730.00;;;;8236422;28;20207;-73
2023/12/15 07:53:51;;;;;;;20.93;9.73;;;;;3.30;97738.00;;;;8236855;28;20199;-75
2023/12/15 07:57:54;;;;;;;20.23;10.00;;;;;3.20;97743.00;;;;8236425;28;20283;-74
2023/12/15 08:01:59;;;;;;;22.60;10.00;;;;;3.20;97749.00;;;;8239712;28;20276;-74
2023/12/15 08:06:04;;;;;;;20.00;9.30;;;;;3.30;97754.00;;;;8256744;28;20988;-73
2023/12/15 08:10:09;;;;;;;18.87;9.60;;;;;3.30;97747.00;;;;8249186;28;20202;-73
2023/12/15 08:14:12;;;;;;;18.50;9.40;;;;;3.30;97747.00;;;;8246175;28;20265;-73
2023/12/15 08:18:15;;;;;;;16.77;8.83;;;;;3.40;97750.00;;;;8244077;28;20206;-74
2023/12/15 08:22:20;;;;;;;18.03;9.50;;;;;3.50;97757.00;;;;8252015;28;20230;-74
2023/12/15 08:26:25;;;;;;;20.07;9.23;;;;;3.50;97774.00;;;;8252069;28;20294;-74
2023/12/15 08:30:28;;;;;;;20.20;9.67;;;;;3.60;97777.00;;;;8252052;28;20205;-74
2023/12/15 08:34:32;;;;;;;21.37;9.30;;;;;3.70;97781.00;;;;8254969;28;20217;-74
2023/12/15 08:38:37;;;;;;;19.20;9.93;;;;;3.70;97787.00;;;;8255609;28;20309;-75
2023/12/15 08:42:40;;;;;;;19.37;9.13;;;;;3.70;97793.00;;;;8251565;28;20344;-76
2023/12/15 08:46:43;;;;;;;20.23;10.43;;;;;3.60;97803.00;;;;8253998;28;20295;-75
2023/12/15 08:50:46;;;;;;;20.37;10.20;;;;;3.60;97807.00;;;;8266423;28;20200;-75
2023/12/15 08:54:50;;;;;;;20.30;9.67;;;;;3.60;97798.00;;;;8249887;28;20310;-75
2023/12/15 08:58:54;;;;;;;18.37;9.40;;;;;3.70;97806.00;;;;8251226;28;20645;-76
2023/12/15 09:02:57;;;;;;;17.33;9.27;;;;;3.80;97813.00;;;;8247457;28;20631;-77
2023/12/15 09:07:00;;;;;;;19.80;9.43;;;;;3.80;97827.00;;;;8256793;28;20921;-76
2023/12/15 09:11:06;;;;;;;17.13;8.53;;;;;3.80;97823.00;;;;8275398;28;20265;-75
2023/12/15 09:15:10;;;;;;;17.13;8.40;;;;;3.90;97842.00;;;;8301271;28;20678;-75
2023/12/15 09:19:13;;;;;;;14.77;7.77;;;;;4.00;97839.00;;;;8301516;28;20268;-76
2023/12/15 09:23:16;;;;;;;63.23;33.47;;;;;4.00;97844.00;;;;8300741;28;20544;-80
2023/12/15 09:27:20;;;;;;;25.50;12.97;;;;;4.00;97831.00;;;;8300512;28;20268;-78
2023/12/15 09:31:23;;;;;;;39.27;27.37;;;;;4.20;97832.00;;;;8300215;28;20289;-78
2023/12/15 09:35:27;;;;;;;28.63;15.97;;;;;4.30;97835.00;;;;8300918;28;20201;-78
2023/12/15 09:39:30;;;;;;;33.17;21.17;;;;;4.40;97842.00;;;;8300791;28;20224;-78
2023/12/15 09:43:35;;;;;;;42.47;29.80;;;;;4.50;97837.00;;;;8301161;28;20257;-78
2023/12/15 09:47:42;;;;;;;30.53;18.90;;;;;4.60;97845.00;;;;8298932;28;20237;-78
2023/12/15 09:51:49;;;;;;;20.77;11.27;;;;;4.80;97854.00;;;;8299346;28;20178;-79
2023/12/15 09:55:53;;;;;;;17.20;10.13;;;;;5.00;97843.00;;;;8298675;28;20221;-79
2023/12/15 09:59:58;;;;;;;21.47;9.97;;;;;5.00;97850.00;;;;8299686;28;20643;-80
2023/12/15 10:04:01;;;;;;;15.33;8.63;;;;;5.20;97853.00;;;;8300278;28;20318;-76
2023/12/15 10:08:05;;;;;;;14.40;7.87;;;;;5.30;97852.00;;;;8298216;28;20296;-82
2023/12/15 10:12:09;;;;;;;16.93;8.17;;;;;5.40;97858.00;;;;8297275;28;20531;-80
2023/12/15 10:16:14;;;;;;;14.40;8.13;;;;;5.60;97860.00;;;;8297285;28;20775;-81
2023/12/15 10:20:18;;;;;;;15.97;8.03;;;;;5.60;97858.00;;;;8297225;28;20201;-82
2023/12/15 10:24:23;;;;;;;14.87;7.83;;;;;5.80;97867.00;;;;8298799;28;20312;-81
2023/12/15 10:28:26;;;;;;;14.23;7.83;;;;;5.90;97862.00;;;;8299047;28;20276;-79
2023/12/15 10:32:31;;;;;;;15.80;9.17;;;;;5.90;97865.00;;;;8297039;28;20201;-81
2023/12/15 10:36:40;;;;;;;13.43;7.67;;;;;6.00;97868.00;;;;8295905;28;20194;-80
2023/12/15 10:40:43;;;;;;;17.73;8.80;;;;;6.00;97878.00;;;;8297010;28;20186;-79
2023/12/15 10:44:48;;;;;;;14.53;7.80;;;;;6.00;97876.00;;;;8299242;28;20561;-80
2023/12/15 10:48:54;;;;;;;17.33;8.73;;;;;6.00;97871.00;;;;8297834;28;20201;-83
2023/12/15 10:52:57;;;;;;;15.43;8.20;;;;;6.00;97866.00;;;;8297831;28;20182;-84
2023/12/15 10:57:00;;;;;;;17.70;8.77;;;;;6.10;97869.00;;;;8298866;28;20220;-83
2023/12/15 11:01:09;;;;;;;14.77;8.53;;;;;6.10;97879.00;;;;8297305;28;20198;-84
2023/12/15 11:05:14;;;;;;;14.67;8.30;;;;;6.20;97882.00;;;;8297120;28;20218;-86
2023/12/15 11:09:30;;;;;;;18.03;8.53;;;;;6.10;97885.00;;;;8299887;28;20186;-82
2023/12/15 11:14:05;;;;;;;17.10;8.53;;;;;6.10;97889.00;;;;8302141;28;20274;-81
2023/12/15 11:18:09;;;;;;;17.63;9.17;;;;;6.20;97899.00;;;;8303711;28;20192;-84
2023/12/15 11:22:17;;;;;;;16.70;8.70;;;;;6.30;97898.00;;;;8300727;28;20240;-84
2023/12/15 11:26:22;;;;;;;16.77;9.00;;;;;6.20;97893.00;;;;8304373;28;20252;-82
2023/12/15 11:30:30;;;;;;;18.50;8.97;;;;;6.10;97897.00;;;;8304437;28;20190;-84
2023/12/15 11:34:40;;;;;;;20.37;10.03;;;;;6.10;97895.00;;;;8304268;28;20201;-84
2023/12/15 11:38:49;;;;;;;16.17;8.57;;;;;6.20;97909.00;;;;8303952;28;20194;-81
2023/12/15 11:42:53;;;;;;;19.67;8.70;;;;;6.20;97904.00;;;;8304280;28;20252;-85
2023/12/15 11:46:56;;;;;;;17.67;9.07;;;;;6.20;97913.00;;;;8303874;28;20240;-82
2023/12/15 11:51:00;;;;;;;19.40;9.67;;;;;6.20;97911.00;;;;8303869;28;20532;-82
2023/12/15 11:55:05;;;;;;;19.13;9.00;;;;;6.30;97928.00;;;;8303771;28;20194;-82
2023/12/15 11:59:09;;;;;;;16.93;8.73;;;;;6.30;97922.00;;;;8303880;28;20599;-82
2023/12/15 12:03:13;;;;;;;18.67;9.23;;;;;6.30;97932.00;;;;8303231;28;20222;-81
2023/12/15 12:07:17;;;;;;;16.70;8.57;;;;;6.30;97934.00;;;;8300584;28;20202;-80
2023/12/15 12:11:21;;;;;;;20.73;9.50;;;;;6.30;97937.00;;;;8303746;28;20535;-83
2023/12/15 12:15:25;;;;;;;23.07;10.30;;;;;6.20;97952.00;;;;8302522;28;20198;-83
2023/12/15 12:19:32;;;;;;;18.27;9.77;;;;;6.30;97960.00;;;;8302205;28;20230;-84
2023/12/15 12:23:35;;;;;;;20.57;10.00;;;;;6.20;97947.00;;;;8301370;28;20187;-84
2023/12/15 12:27:48;;;;;;;17.80;9.80;;;;;6.20;97931.00;;;;8303221;28;20578;-84
2023/12/15 12:31:52;;;;;;;20.20;10.67;;;;;6.20;97923.00;;;;8301844;28;20646;-84
2023/12/15 12:41:15;;;;;;;23.10;10.70;;;;;6.20;97926.00;;;;8304207;28;20542;-84
2023/12/15 12:45:21;;;;;;;26.07;10.93;;;;;6.30;97930.00;;;;8300081;28;20277;-84
2023/12/15 12:49:25;;;;;;;22.10;10.13;;;;;6.40;97931.00;;;;8302042;28;20273;-85
2023/12/15 12:53:29;;;;;;;24.17;10.50;;;;;6.40;97923.00;;;;8301444;28;20650;-85
2023/12/15 12:57:32;;;;;;;21.37;11.20;;;;;6.50;97918.00;;;;8300750;28;20642;-85
2023/12/15 13:01:37;;;;;;;22.27;11.07;;;;;6.50;97919.00;;;;8302059;28;20658;-85
2023/12/15 13:05:40;;;;;;;21.53;10.13;;;;;6.60;97924.00;;;;8300460;28;20744;-84
2023/12/15 13:09:43;;;;;;;20.67;10.27;;;;;6.70;97918.00;;;;8299667;28;20292;-85
2023/12/15 13:13:47;;;;;;;22.20;10.47;;;;;6.70;97919.00;;;;8300876;28;20648;-83
2023/12/15 13:17:53;;;;;;;22.50;10.47;;;;;6.80;97924.00;;;;8300758;28;20250;-83
2023/12/15 13:21:57;;;;;;;24.07;11.23;;;;;6.80;97917.00;;;;8300525;28;20182;-81
2023/12/15 13:26:00;;;;;;;23.87;10.90;;;;;6.80;97929.00;;;;8300502;28;20218;-83
2023/12/15 13:30:04;;;;;;;25.83;10.93;;;;;6.80;97930.00;;;;8301220;28;20576;-83
2023/12/15 13:34:09;;;;;;;24.53;10.07;;;;;6.90;97928.00;;;;8298337;28;20206;-81
2023/12/15 13:38:12;;;;;;;22.50;10.20;;;;;6.90;97928.00;;;;8299885;28;20607;-82
2023/12/15 13:42:15;;;;;;;24.87;11.00;;;;;6.90;97921.00;;;;8299781;28;20536;-82
2023/12/15 13:46:21;;;;;;;20.07;10.20;;;;;6.80;97933.00;;;;8299226;28;20218;-83
2023/12/15 13:50:28;;;;;;;20.73;10.73;;;;;6.80;97931.00;;;;8299724;28;20612;-83
2023/12/15 13:54:31;;;;;;;21.93;10.67;;;;;6.80;97933.00;;;;8299455;28;20194;-82
2023/12/15 13:58:34;;;;;;;22.67;10.27;;;;;6.80;97932.00;;;;8315051;28;20222;-83
2023/12/15 14:02:40;;;;;;;22.93;9.93;;;;;6.80;97938.00;;;;8299337;28;20230;-82
2023/12/15 14:06:49;;;;;;;31.03;14.17;;;;;6.80;97944.00;;;;8297791;28;20210;-82
2023/12/15 14:10:52;;;;;;;21.43;10.23;;;;;6.80;97947.00;;;;8299183;28;20186;-82
2023/12/15 14:14:55;;;;;;;20.20;10.67;;;;;6.80;97947.00;;;;8298436;28;20198;-83
2023/12/15 14:19:00;;;;;;;30.57;14.03;;;;;6.80;97943.00;;;;8299236;28;20201;-82
2023/12/15 14:23:05;;;;;;;23.50;10.87;;;;;6.80;97957.00;;;;8299149;28;20205;-83
2023/12/15 14:27:09;;;;;;;21.47;10.30;;;;;6.80;97950.00;;;;8300040;28;20563;-83
2023/12/15 14:31:13;;;;;;;21.27;10.13;;;;;6.90;97960.00;;;;8299096;28;20204;-83
2023/12/15 14:35:17;;;;;;;20.40;10.03;;;;;6.90;97959.00;;;;8298425;28;20233;-84
2023/12/15 14:39:22;;;;;;;20.00;9.97;;;;;6.90;97972.00;;;;8298712;28;20194;-83
2023/12/15 14:43:25;;;;;;;19.53;9.97;;;;;6.80;97975.00;;;;8297531;28;20202;-81
2023/12/15 14:47:28;;;;;;;53.70;19.87;;;;;6.80;97982.00;;;;8299570;28;20264;-83
2023/12/15 14:51:31;;;;;;;24.70;11.00;;;;;6.80;97989.00;;;;8298486;28;20205;-82
2023/12/15 14:55:36;;;;;;;22.03;10.83;;;;;6.80;98000.00;;;;8299532;28;20197;-81
2023/12/15 14:59:42;;;;;;;20.20;10.03;;;;;6.80;98008.00;;;;8298471;28;20641;-81
2023/12/15 15:03:47;;;;;;;21.70;10.13;;;;;6.80;98008.00;;;;8299665;28;20279;-81
2023/12/15 15:07:50;;;;;;;21.27;10.13;;;;;6.80;97997.00;;;;8297844;28;20308;-83
2023/12/15 15:11:55;;;;;;;19.20;9.67;;;;;6.80;98003.00;;;;8298103;28;20215;-81
2023/12/15 15:15:59;;;;;;;17.57;9.60;;;;;6.80;98024.00;;;;8298738;28;20520;-81
2023/12/15 15:20:03;;;;;;;21.10;10.70;;;;;6.70;98026.00;;;;8298941;28;20229;-82
2023/12/15 15:24:07;;;;;;;22.57;10.73;;;;;6.70;98029.00;;;;8297829;28;20186;-80
2023/12/15 15:28:11;;;;;;;45.33;18.47;;;;;6.70;98036.00;;;;8297848;28;20703;-82
2023/12/15 15:32:14;;;;;;;21.67;10.17;;;;;6.70;98032.00;;;;8298532;28;20531;-81
2023/12/15 15:36:18;;;;;;;20.23;10.33;;;;;6.70;98052.00;;;;8298249;28;20252;-82
2023/12/15 15:40:22;;;;;;;19.43;10.93;;;;;6.70;98060.00;;;;8292939;28;20198;-82
2023/12/15 15:44:28;;;;;;;20.83;10.07;;;;;6.80;98062.00;;;;8297326;28;20305;-79
2023/12/15 15:48:32;;;;;;;21.37;9.93;;;;;6.80;98065.00;;;;8297457;28;20210;-82
2023/12/15 15:52:36;;;;;;;21.40;10.37;;;;;6.80;98061.00;;;;8298445;28;20281;-81
2023/12/15 15:56:44;;;;;;;23.17;11.47;;;;;6.80;98065.00;;;;8301657;28;20214;-83
2023/12/15 16:00:49;;;;;;;19.90;10.33;;;;;6.70;98073.00;;;;8302372;28;20186;-81
2023/12/15 16:04:53;;;;;;;21.33;11.77;;;;;6.70;98073.00;;;;8302411;28;20605;-81
2023/12/15 16:08:57;;;;;;;21.50;11.30;;;;;6.70;98069.00;;;;8300784;28;20198;-83
2023/12/15 16:13:00;;;;;;;24.70;13.37;;;;;6.70;98069.00;;;;8303097;28;20201;-81
2023/12/15 16:17:05;;;;;;;29.90;15.80;;;;;6.70;98073.00;;;;8302603;28;20293;-82
2023/12/15 16:21:09;;;;;;;30.63;16.30;;;;;6.70;98067.00;;;;8300600;28;20623;-83
2023/12/15 16:25:12;;;;;;;28.33;16.57;;;;;6.70;98061.00;;;;8301736;28;20329;-81
2023/12/15 16:29:16;;;;;;;25.33;14.50;;;;;6.70;98058.00;;;;8301843;28;20576;-79
2023/12/15 16:33:21;;;;;;;23.30;12.87;;;;;6.70;98056.00;;;;8301726;28;20201;-80
2023/12/15 16:37:25;;;;;;;24.43;11.67;;;;;6.70;98056.00;;;;8303043;28;20190;-81
2023/12/15 16:41:30;;;;;;;23.47;11.27;;;;;6.70;98063.00;;;;8302564;28;20640;-80
2023/12/15 16:45:34;;;;;;;21.30;11.73;;;;;6.70;98077.00;;;;8302648;28;20216;-80
2023/12/15 16:49:41;;;;;;;25.40;12.18;;;;;6.70;98084.00;;;;8302430;28;20329;-83
2023/12/15 16:53:44;;;;;;;31.43;13.47;;;;;6.70;98078.00;;;;8301516;28;20244;-82
2023/12/15 16:57:47;;;;;;;21.90;11.23;;;;;6.60;98077.00;;;;8300517;28;20229;-80
2023/12/15 17:01:51;;;;;;;19.97;10.40;;;;;6.70;98082.00;;;;8301254;28;20226;-80
2023/12/15 17:05:56;;;;;;;19.10;10.47;;;;;6.70;98089.00;;;;8301216;28;20218;-79
2023/12/15 17:09:59;;;;;;;32.70;18.47;;;;;6.60;98093.00;;;;8297555;28;20293;-80
2023/12/15 17:14:02;;;;;;;131.93;77.20;;;;;6.50;98087.00;;;;8299682;28;20194;-83
2023/12/15 17:18:06;;;;;;;33.57;21.13;;;;;6.50;98090.00;;;;8300397;28;20240;-83
2023/12/15 17:22:14;;;;;;;25.83;14.10;;;;;6.30;98088.00;;;;8301398;28;20547;-83
2023/12/15 17:26:18;;;;;;;36.00;17.97;;;;;6.30;98102.00;;;;8301546;28;20217;-83
2023/12/15 17:30:21;;;;;;;28.03;12.87;;;;;6.30;98107.00;;;;8300162;28;20787;-83
2023/12/15 17:34:24;;;;;;;29.60;15.40;;;;;6.30;98105.00;;;;8300574;28;20248;-80
2023/12/15 17:38:30;;;;;;;41.40;23.03;;;;;6.30;98096.00;;;;8300188;28;20190;-81
2023/12/15 17:42:36;;;;;;;35.50;17.97;;;;;6.30;98106.00;;;;8300448;28;20187;-77
2023/12/15 17:46:40;;;;;;;25.00;12.50;;;;;6.30;98099.00;;;;8300540;28;20226;-76
2023/12/15 17:50:43;;;;;;;31.60;13.75;;;;;6.20;98114.00;;;;8300969;28;20695;-76
2023/12/15 17:54:48;;;;;;;31.80;13.67;;;;;6.20;98112.00;;;;8300281;28;20636;-76
2023/12/15 17:58:51;;;;;;;30.87;12.50;;;;;6.20;98111.00;;;;8299890;28;20190;-76
2023/12/15 18:02:54;;;;;;;28.60;13.17;;;;;6.20;98103.00;;;;8301015;28;20268;-76
2023/12/15 18:06:57;;;;;;;29.37;12.37;;;;;6.10;98119.00;;;;8301281;28;20229;-76
2023/12/15 18:11:02;;;;;;;32.17;14.30;;;;;6.10;98115.00;;;;8299867;28;20202;-77
2023/12/15 18:15:06;;;;;;;26.70;13.10;;;;;6.10;98128.00;;;;8299943;28;20194;-77
2023/12/15 18:19:10;;;;;;;30.80;13.13;;;;;6.10;98133.00;;;;8299458;28;20252;-77
2023/12/15 18:23:13;;;;;;;27.97;12.17;;;;;6.10;98138.00;;;;8300144;28;20516;-77
2023/12/15 18:27:23;;;;;;;29.70;12.80;;;;;6.10;98149.00;;;;8300712;28;20672;-77
2023/12/15 18:31:26;;;;;;;31.17;13.43;;;;;6.20;98156.00;;;;8299498;28;20228;-77
2023/12/15 18:35:30;;;;;;;30.00;12.70;;;;;6.20;98147.00;;;;8299444;28;20263;-77
2023/12/15 18:39:34;;;;;;;28.73;13.63;;;;;6.10;98154.00;;;;8298973;28;20229;-77
2023/12/15 18:43:39;;;;;;;31.60;13.33;;;;;6.10;98174.00;;;;8299800;28;20603;-77
2023/12/15 18:47:42;;;;;;;33.07;14.20;;;;;6.10;98162.00;;;;8299086;28;20232;-76
2023/12/15 18:51:45;;;;;;;33.70;13.83;;;;;6.10;98159.00;;;;8298280;28;20199;-78
2023/12/15 18:55:48;;;;;;;27.70;12.60;;;;;6.10;98165.00;;;;8300001;28;20194;-76
2023/12/15 18:59:53;;;;;;;31.97;13.57;;;;;6.10;98173.00;;;;8298445;28;20231;-76
2023/12/15 19:03:57;;;;;;;29.50;14.03;;;;;6.00;98181.00;;;;8299880;28;20230;-77
2023/12/15 19:08:01;;;;;;;30.60;12.97;;;;;6.00;98177.00;;;;8298075;28;20287;-77
2023/12/15 19:12:06;;;;;;;29.97;13.30;;;;;6.00;98183.00;;;;8299360;28;20197;-77
2023/12/15 19:16:11;;;;;;;27.10;12.33;;;;;6.10;98199.00;;;;8298740;28;20288;-77
2023/12/15 19:20:14;;;;;;;28.20;12.30;;;;;6.00;98209.00;;;;8300022;28;20197;-77
2023/12/15 19:24:18;;;;;;;30.27;12.20;;;;;6.10;98206.00;;;;8297492;28;20225;-77
2023/12/15 19:28:21;;;;;;;28.03;11.77;;;;;6.10;98210.00;;;;8297372;28;20683;-77
2023/12/15 19:32:25;;;;;;;29.37;12.30;;;;;6.10;98204.00;;;;8303461;28;20194;-77
2023/12/15 19:36:28;;;;;;;24.80;11.57;;;;;6.20;98213.00;;;;8304973;28;20550;-77
2023/12/15 19:40:32;;;;;;;26.80;11.93;;;;;6.20;98222.00;;;;8305262;28;20635;-77
2023/12/15 19:44:36;;;;;;;27.67;12.27;;;;;6.20;98229.00;;;;8304414;28;20687;-72
2023/12/15 19:48:41;;;;;;;27.07;12.13;;;;;6.20;98236.00;;;;8303559;28;20317;-72
2023/12/15 19:52:45;;;;;;;25.57;11.97;;;;;6.20;98243.00;;;;8304197;28;20600;-72
2023/12/15 19:56:48;;;;;;;26.23;11.80;;;;;6.20;98240.00;;;;8304014;28;20292;-73
2023/12/15 20:00:51;;;;;;;28.10;12.67;;;;;6.10;98221.00;;;;8302014;28;20234;-73
2023/12/15 20:04:59;;;;;;;25.23;11.57;;;;;6.10;98227.00;;;;8301775;28;20222;-73
2023/12/15 20:09:04;;;;;;;23.80;11.20;;;;;6.00;98223.00;;;;8300620;28;20214;-75
2023/12/15 20:13:07;;;;;;;24.00;10.90;;;;;6.00;98216.00;;;;8302422;28;20616;-77
2023/12/15 20:17:10;;;;;;;19.93;9.93;;;;;6.00;98220.00;;;;8302077;28;20395;-77
2023/12/15 20:21:17;;;;;;;24.03;10.40;;;;;6.10;98236.00;;;;8303804;28;20539;-77
2023/12/15 20:25:21;;;;;;;25.03;10.53;;;;;6.20;98246.00;;;;8302718;28;20229;-77